sensor_id;sensor_type;location;lat;lon;timestamp;temperature;humidity
43338;DHT22;28933;52.492;13.434;2022-10-31T00:01:14;15.00;99.90
43338;DHT22;28933;52.492;13.434;2022-10-31T00:03:40;15.00;99.90
43338;DHT22;28933;52.492;13.434;2022-10-31T00:06:06;15.00;99.90
43338;DHT22;28933;52.492;13.434;2022-10-31T00:08:31;14.90;99.90
43338;DHT22;28933;52.492;13.434;2022-10-31T00:10:57;14.90;99.90
43338;DHT22;28933;52.492;13.434;2022-10-31T00:13:23;14.90;99.90
43338;DHT22;28933;52.492;13.434;2022-10-31T00:15:49;14.80;99.90
43338;DHT22;28933;52.492;13.434;2022-10-31T00:18:15;14.80;99.90
43338;DHT22;28933;52.492;13.434;2022-10-31T00:20:40;14.80;99.90
43338;DHT22;28933;52.492;13.434;2022-10-31T00:23:07;14.80;99.90
43338;DHT22;28933;52.492;13.434;2022-10-31T00:25:35;14.80;99.90
43338;DHT22;28933;52.492;13.434;2022-10-31T00:28:02;14.80;99.90
43338;DHT22;28933;52.492;13.434;2022-10-31T00:30:27;14.80;99.90
43338;DHT22;28933;52.492;13.434;2022-10-31T00:32:53;14.80;99.90
43338;DHT22;28933;52.492;13.434;2022-10-31T00:35:18;14.80;99.90
43338;DHT22;28933;52.492;13.434;2022-10-31T00:37:44;14.80;99.90
43338;DHT22;28933;52.492;13.434;2022-10-31T00:40:10;14.80;99.90
43338;DHT22;28933;52.492;13.434;2022-10-31T00:42:36;14.80;99.90
43338;DHT22;28933;52.492;13.434;2022-10-31T00:45:02;14.80;99.90
43338;DHT22;28933;52.492;13.434;2022-10-31T00:47:27;14.80;99.90
43338;DHT22;28933;52.492;13.434;2022-10-31T00:49:53;14.80;99.90
43338;DHT22;28933;52.492;13.434;2022-10-31T00:52:18;14.80;99.90
43338;DHT22;28933;52.492;13.434;2022-10-31T00:54:44;14.80;99.90
43338;DHT22;28933;52.492;13.434;2022-10-31T00:57:09;14.90;99.90
43338;DHT22;28933;52.492;13.434;2022-10-31T00:59:36;14.90;99.90
43338;DHT22;28933;52.492;13.434;2022-10-31T01:02:02;14.90;99.90
43338;DHT22;28933;52.492;13.434;2022-10-31T01:04:27;14.90;99.90
43338;DHT22;28933;52.492;13.434;2022-10-31T01:06:53;14.90;99.90
43338;DHT22;28933;52.492;13.434;2022-10-31T01:09:18;14.90;99.90
43338;DHT22;28933;52.492;13.434;2022-10-31T01:11:45;15.00;99.90
43338;DHT22;28933;52.492;13.434;2022-10-31T01:14:10;14.90;99.90
43338;DHT22;28933;52.492;13.434;2022-10-31T01:16:36;14.90;99.90
43338;DHT22;28933;52.492;13.434;2022-10-31T01:19:01;15.00;99.90
43338;DHT22;28933;52.492;13.434;2022-10-31T01:21:28;15.00;99.90
43338;DHT22;28933;52.492;13.434;2022-10-31T01:23:55;15.00;99.90
43338;DHT22;28933;52.492;13.434;2022-10-31T01:26:23;15.00;99.90
43338;DHT22;28933;52.492;13.434;2022-10-31T01:28:54;14.90;99.90
43338;DHT22;28933;52.492;13.434;2022-10-31T01:31:23;15.00;99.90
43338;DHT22;28933;52.492;13.434;2022-10-31T01:33:50;15.00;99.90
43338;DHT22;28933;52.492;13.434;2022-10-31T01:36:17;15.00;99.90
43338;DHT22;28933;52.492;13.434;2022-10-31T01:38:43;15.00;99.90
43338;DHT22;28933;52.492;13.434;2022-10-31T01:41:13;15.00;99.90
43338;DHT22;28933;52.492;13.434;2022-10-31T01:46:11;15.00;99.90
43338;DHT22;28933;52.492;13.434;2022-10-31T01:48:39;15.00;99.90
43338;DHT22;28933;52.492;13.434;2022-10-31T01:51:07;15.00;99.90
43338;DHT22;28933;52.492;13.434;2022-10-31T01:53:33;15.00;99.90
43338;DHT22;28933;52.492;13.434;2022-10-31T01:56:00;15.00;99.90
43338;DHT22;28933;52.492;13.434;2022-10-31T01:58:28;15.00;99.90
43338;DHT22;28933;52.492;13.434;2022-10-31T02:00:58;15.00;99.90
43338;DHT22;28933;52.492;13.434;2022-10-31T02:03:25;15.00;99.90
43338;DHT22;28933;52.492;13.434;2022-10-31T02:05:53;15.00;99.90
43338;DHT22;28933;52.492;13.434;2022-10-31T02:08:21;15.00;99.90
43338;DHT22;28933;52.492;13.434;2022-10-31T02:10:49;15.00;99.90
43338;DHT22;28933;52.492;13.434;2022-10-31T02:13:15;15.10;99.90
43338;DHT22;28933;52.492;13.434;2022-10-31T02:15:43;15.00;99.90
43338;DHT22;28933;52.492;13.434;2022-10-31T02:18:10;15.00;99.90
43338;DHT22;28933;52.492;13.434;2022-10-31T02:20:49;15.00;99.90
43338;DHT22;28933;52.492;13.434;2022-10-31T02:26:53;15.00;99.90
43338;DHT22;28933;52.492;13.434;2022-10-31T02:40:25;14.90;99.90
43338;DHT22;28933;52.492;13.434;2022-10-31T02:43:12;14.90;99.90
43338;DHT22;28933;52.492;13.434;2022-10-31T02:46:06;14.80;99.90
43338;DHT22;28933;52.492;13.434;2022-10-31T02:48:37;14.80;99.90
43338;DHT22;28933;52.492;13.434;2022-10-31T02:51:04;14.80;99.90
43338;DHT22;28933;52.492;13.434;2022-10-31T02:53:34;14.90;99.90
43338;DHT22;28933;52.492;13.434;2022-10-31T02:56:16;14.80;99.90
43338;DHT22;28933;52.492;13.434;2022-10-31T02:59:02;14.80;99.90
43338;DHT22;28933;52.492;13.434;2022-10-31T03:01:39;14.90;99.90
43338;DHT22;28933;52.492;13.434;2022-10-31T03:04:16;14.90;99.90
43338;DHT22;28933;52.492;13.434;2022-10-31T03:07:15;14.90;99.90
43338;DHT22;28933;52.492;13.434;2022-10-31T03:15:21;14.90;99.90
43338;DHT22;28933;52.492;13.434;2022-10-31T03:18:08;14.90;99.90
43338;DHT22;28933;52.492;13.434;2022-10-31T03:20:45;14.90;99.90
43338;DHT22;28933;52.492;13.434;2022-10-31T03:23:18;14.90;99.90
43338;DHT22;28933;52.492;13.434;2022-10-31T03:25:46;14.90;99.90
43338;DHT22;28933;52.492;13.434;2022-10-31T03:28:16;14.90;99.90
43338;DHT22;28933;52.492;13.434;2022-10-31T03:30:44;14.80;99.90
43338;DHT22;28933;52.492;13.434;2022-10-31T03:33:15;14.90;99.90
43338;DHT22;28933;52.492;13.434;2022-10-31T03:35:44;14.90;99.90
43338;DHT22;28933;52.492;13.434;2022-10-31T03:38:12;14.80;99.90
43338;DHT22;28933;52.492;13.434;2022-10-31T03:40:41;14.90;99.90
43338;DHT22;28933;52.492;13.434;2022-10-31T03:43:15;14.80;99.90
43338;DHT22;28933;52.492;13.434;2022-10-31T03:45:45;14.90;99.90
43338;DHT22;28933;52.492;13.434;2022-10-31T03:48:13;14.90;99.90
43338;DHT22;28933;52.492;13.434;2022-10-31T03:53:33;14.90;99.90
43338;DHT22;28933;52.492;13.434;2022-10-31T03:56:03;14.90;99.90
43338;DHT22;28933;52.492;13.434;2022-10-31T03:58:38;14.90;99.90
43338;DHT22;28933;52.492;13.434;2022-10-31T04:01:11;14.90;99.90
43338;DHT22;28933;52.492;13.434;2022-10-31T04:03:39;14.90;99.90
43338;DHT22;28933;52.492;13.434;2022-10-31T04:06:10;14.90;99.90
43338;DHT22;28933;52.492;13.434;2022-10-31T04:08:42;14.90;99.90
43338;DHT22;28933;52.492;13.434;2022-10-31T04:11:11;14.90;99.90
43338;DHT22;28933;52.492;13.434;2022-10-31T04:13:39;14.90;99.90
43338;DHT22;28933;52.492;13.434;2022-10-31T04:16:06;14.90;99.90
43338;DHT22;28933;52.492;13.434;2022-10-31T04:18:33;14.90;99.90
43338;DHT22;28933;52.492;13.434;2022-10-31T04:21:06;14.90;99.90
43338;DHT22;28933;52.492;13.434;2022-10-31T04:23:33;14.90;99.90
43338;DHT22;28933;52.492;13.434;2022-10-31T04:25:59;15.00;99.90
43338;DHT22;28933;52.492;13.434;2022-10-31T04:28:25;15.00;99.90
43338;DHT22;28933;52.492;13.434;2022-10-31T04:30:51;15.00;99.90
43338;DHT22;28933;52.492;13.434;2022-10-31T04:33:17;15.00;99.90
43338;DHT22;28933;52.492;13.434;2022-10-31T04:35:43;14.90;99.90
43338;DHT22;28933;52.492;13.434;2022-10-31T04:38:15;15.00;99.90
43338;DHT22;28933;52.492;13.434;2022-10-31T04:40:42;15.00;99.90
43338;DHT22;28933;52.492;13.434;2022-10-31T04:43:08;15.00;99.90
43338;DHT22;28933;52.492;13.434;2022-10-31T04:45:34;14.90;99.90
43338;DHT22;28933;52.492;13.434;2022-10-31T04:47:59;14.90;99.90
43338;DHT22;28933;52.492;13.434;2022-10-31T04:50:31;14.90;99.90
43338;DHT22;28933;52.492;13.434;2022-10-31T04:52:56;14.90;99.90
43338;DHT22;28933;52.492;13.434;2022-10-31T04:55:22;14.90;99.90
43338;DHT22;28933;52.492;13.434;2022-10-31T04:57:48;14.90;99.90
43338;DHT22;28933;52.492;13.434;2022-10-31T05:00:19;14.90;99.90
43338;DHT22;28933;52.492;13.434;2022-10-31T05:02:46;14.90;99.90
43338;DHT22;28933;52.492;13.434;2022-10-31T05:05:14;14.90;99.90
43338;DHT22;28933;52.492;13.434;2022-10-31T05:07:41;14.90;99.90
43338;DHT22;28933;52.492;13.434;2022-10-31T05:10:08;14.80;99.90
43338;DHT22;28933;52.492;13.434;2022-10-31T05:12:35;14.90;99.90
43338;DHT22;28933;52.492;13.434;2022-10-31T05:15:01;14.90;99.90
43338;DHT22;28933;52.492;13.434;2022-10-31T05:17:26;14.80;99.90
43338;DHT22;28933;52.492;13.434;2022-10-31T05:19:52;14.80;99.90
43338;DHT22;28933;52.492;13.434;2022-10-31T05:22:17;14.80;99.90
43338;DHT22;28933;52.492;13.434;2022-10-31T05:24:43;14.80;99.90
43338;DHT22;28933;52.492;13.434;2022-10-31T05:27:10;14.80;99.90
43338;DHT22;28933;52.492;13.434;2022-10-31T05:29:35;14.70;99.90
43338;DHT22;28933;52.492;13.434;2022-10-31T05:32:04;14.70;99.90
43338;DHT22;28933;52.492;13.434;2022-10-31T05:34:30;14.70;99.90
43338;DHT22;28933;52.492;13.434;2022-10-31T05:36:55;14.70;99.90
43338;DHT22;28933;52.492;13.434;2022-10-31T05:39:21;14.70;99.90
43338;DHT22;28933;52.492;13.434;2022-10-31T05:41:46;14.70;99.90
43338;DHT22;28933;52.492;13.434;2022-10-31T05:44:12;14.70;99.90
43338;DHT22;28933;52.492;13.434;2022-10-31T05:46:37;14.70;99.90
43338;DHT22;28933;52.492;13.434;2022-10-31T05:49:04;14.70;99.90
43338;DHT22;28933;52.492;13.434;2022-10-31T05:51:29;14.70;99.90
43338;DHT22;28933;52.492;13.434;2022-10-31T05:53:55;14.70;99.90
43338;DHT22;28933;52.492;13.434;2022-10-31T05:56:20;14.60;99.90
43338;DHT22;28933;52.492;13.434;2022-10-31T05:58:46;14.70;99.90
43338;DHT22;28933;52.492;13.434;2022-10-31T06:01:13;14.70;99.90
43338;DHT22;28933;52.492;13.434;2022-10-31T06:03:38;14.70;99.90
43338;DHT22;28933;52.492;13.434;2022-10-31T06:06:04;14.70;99.90
43338;DHT22;28933;52.492;13.434;2022-10-31T06:08:30;14.70;99.90
43338;DHT22;28933;52.492;13.434;2022-10-31T06:10:55;14.70;99.90
43338;DHT22;28933;52.492;13.434;2022-10-31T06:13:22;14.70;99.90
43338;DHT22;28933;52.492;13.434;2022-10-31T06:15:48;14.70;99.90
43338;DHT22;28933;52.492;13.434;2022-10-31T06:18:13;14.70;99.90
43338;DHT22;28933;52.492;13.434;2022-10-31T06:20:39;14.60;99.90
43338;DHT22;28933;52.492;13.434;2022-10-31T06:23:05;14.70;99.90
43338;DHT22;28933;52.492;13.434;2022-10-31T06:25:31;14.70;99.90
43338;DHT22;28933;52.492;13.434;2022-10-31T06:27:58;14.60;99.90
43338;DHT22;28933;52.492;13.434;2022-10-31T06:30:23;14.70;99.90
43338;DHT22;28933;52.492;13.434;2022-10-31T06:32:49;14.70;99.90
43338;DHT22;28933;52.492;13.434;2022-10-31T06:35:15;14.70;99.90
43338;DHT22;28933;52.492;13.434;2022-10-31T06:37:40;14.70;99.90
43338;DHT22;28933;52.492;13.434;2022-10-31T06:40:06;14.70;99.90
43338;DHT22;28933;52.492;13.434;2022-10-31T06:42:32;14.70;99.90
43338;DHT22;28933;52.492;13.434;2022-10-31T06:44:58;14.70;99.90
43338;DHT22;28933;52.492;13.434;2022-10-31T06:47:24;14.80;99.90
43338;DHT22;28933;52.492;13.434;2022-10-31T06:49:49;14.80;99.90
43338;DHT22;28933;52.492;13.434;2022-10-31T06:52:15;14.80;99.90
43338;DHT22;28933;52.492;13.434;2022-10-31T06:54:41;14.90;99.90
43338;DHT22;28933;52.492;13.434;2022-10-31T06:57:06;14.90;99.90
43338;DHT22;28933;52.492;13.434;2022-10-31T06:59:34;14.90;99.90
43338;DHT22;28933;52.492;13.434;2022-10-31T07:02:00;14.90;99.90
43338;DHT22;28933;52.492;13.434;2022-10-31T07:04:25;14.90;99.90
43338;DHT22;28933;52.492;13.434;2022-10-31T07:06:51;15.00;99.90
43338;DHT22;28933;52.492;13.434;2022-10-31T07:09:18;15.00;99.90
43338;DHT22;28933;52.492;13.434;2022-10-31T07:11:43;15.00;99.90
43338;DHT22;28933;52.492;13.434;2022-10-31T07:14:09;15.00;99.90
43338;DHT22;28933;52.492;13.434;2022-10-31T07:16:34;15.10;99.90
43338;DHT22;28933;52.492;13.434;2022-10-31T07:19:00;15.20;99.90
43338;DHT22;28933;52.492;13.434;2022-10-31T07:21:25;15.20;99.90
43338;DHT22;28933;52.492;13.434;2022-10-31T07:23:51;15.20;99.90
43338;DHT22;28933;52.492;13.434;2022-10-31T07:26:16;15.30;99.90
43338;DHT22;28933;52.492;13.434;2022-10-31T07:28:42;15.30;99.90
43338;DHT22;28933;52.492;13.434;2022-10-31T07:31:08;15.40;99.90
43338;DHT22;28933;52.492;13.434;2022-10-31T07:33:33;15.50;99.90
43338;DHT22;28933;52.492;13.434;2022-10-31T07:35:59;15.60;99.90
43338;DHT22;28933;52.492;13.434;2022-10-31T07:38:26;15.70;99.90
43338;DHT22;28933;52.492;13.434;2022-10-31T07:40:52;15.70;99.90
43338;DHT22;28933;52.492;13.434;2022-10-31T07:43:18;15.80;99.90
43338;DHT22;28933;52.492;13.434;2022-10-31T07:45:48;15.90;99.90
43338;DHT22;28933;52.492;13.434;2022-10-31T07:48:13;15.90;99.90
43338;DHT22;28933;52.492;13.434;2022-10-31T07:50:39;16.00;99.90
43338;DHT22;28933;52.492;13.434;2022-10-31T07:53:10;16.10;99.90
43338;DHT22;28933;52.492;13.434;2022-10-31T07:55:36;16.10;99.90
43338;DHT22;28933;52.492;13.434;2022-10-31T07:58:10;16.20;99.90
43338;DHT22;28933;52.492;13.434;2022-10-31T08:00:39;16.20;99.90
43338;DHT22;28933;52.492;13.434;2022-10-31T08:03:13;16.30;99.90
43338;DHT22;28933;52.492;13.434;2022-10-31T08:05:39;16.30;99.90
43338;DHT22;28933;52.492;13.434;2022-10-31T08:08:06;16.30;99.90
43338;DHT22;28933;52.492;13.434;2022-10-31T08:10:33;16.40;99.90
43338;DHT22;28933;52.492;13.434;2022-10-31T08:13:09;16.40;99.90
43338;DHT22;28933;52.492;13.434;2022-10-31T08:15:35;16.50;99.90
43338;DHT22;28933;52.492;13.434;2022-10-31T08:18:04;16.50;99.90
43338;DHT22;28933;52.492;13.434;2022-10-31T08:20:31;16.50;99.90
43338;DHT22;28933;52.492;13.434;2022-10-31T08:22:59;16.50;99.90
43338;DHT22;28933;52.492;13.434;2022-10-31T08:25:26;16.50;99.90
43338;DHT22;28933;52.492;13.434;2022-10-31T08:27:53;16.50;99.90
43338;DHT22;28933;52.492;13.434;2022-10-31T08:30:20;16.50;99.90
43338;DHT22;28933;52.492;13.434;2022-10-31T08:32:47;16.60;99.90
43338;DHT22;28933;52.492;13.434;2022-10-31T08:35:13;16.60;99.90
43338;DHT22;28933;52.492;13.434;2022-10-31T08:37:39;16.60;99.90
43338;DHT22;28933;52.492;13.434;2022-10-31T08:40:06;16.60;99.90
43338;DHT22;28933;52.492;13.434;2022-10-31T08:42:32;16.70;99.90
43338;DHT22;28933;52.492;13.434;2022-10-31T08:44:58;16.70;99.90
43338;DHT22;28933;52.492;13.434;2022-10-31T08:47:23;16.70;99.90
43338;DHT22;28933;52.492;13.434;2022-10-31T08:49:49;16.60;99.90
43338;DHT22;28933;52.492;13.434;2022-10-31T08:52:14;16.60;99.90
43338;DHT22;28933;52.492;13.434;2022-10-31T08:54:41;16.60;99.90
43338;DHT22;28933;52.492;13.434;2022-10-31T08:57:06;16.60;99.90
43338;DHT22;28933;52.492;13.434;2022-10-31T08:59:32;16.50;99.90
43338;DHT22;28933;52.492;13.434;2022-10-31T09:01:57;16.40;99.90
43338;DHT22;28933;52.492;13.434;2022-10-31T09:04:23;16.40;99.90
43338;DHT22;28933;52.492;13.434;2022-10-31T09:06:49;16.40;99.90
43338;DHT22;28933;52.492;13.434;2022-10-31T09:09:14;16.40;99.90
43338;DHT22;28933;52.492;13.434;2022-10-31T09:11:40;16.40;99.90
43338;DHT22;28933;52.492;13.434;2022-10-31T09:14:05;16.40;99.90
43338;DHT22;28933;52.492;13.434;2022-10-31T09:16:31;16.40;99.90
43338;DHT22;28933;52.492;13.434;2022-10-31T09:18:56;16.50;99.90
43338;DHT22;28933;52.492;13.434;2022-10-31T09:21:23;16.50;99.90
43338;DHT22;28933;52.492;13.434;2022-10-31T09:23:49;16.50;99.90
43338;DHT22;28933;52.492;13.434;2022-10-31T09:26:14;16.50;99.90
43338;DHT22;28933;52.492;13.434;2022-10-31T09:28:40;16.50;99.90
43338;DHT22;28933;52.492;13.434;2022-10-31T09:31:05;16.50;99.90
43338;DHT22;28933;52.492;13.434;2022-10-31T09:33:31;16.60;99.90
43338;DHT22;28933;52.492;13.434;2022-10-31T09:35:58;16.60;99.90
43338;DHT22;28933;52.492;13.434;2022-10-31T09:38:24;16.60;99.90
43338;DHT22;28933;52.492;13.434;2022-10-31T09:43:50;16.80;99.90
43338;DHT22;28933;52.492;13.434;2022-10-31T09:49:28;16.90;99.90
43338;DHT22;28933;52.492;13.434;2022-10-31T09:52:01;16.90;99.90
43338;DHT22;28933;52.492;13.434;2022-10-31T09:54:59;16.90;99.90
43338;DHT22;28933;52.492;13.434;2022-10-31T09:57:34;16.90;99.90
43338;DHT22;28933;52.492;13.434;2022-10-31T10:00:04;17.00;99.90
43338;DHT22;28933;52.492;13.434;2022-10-31T10:06:01;17.00;99.90
43338;DHT22;28933;52.492;13.434;2022-10-31T10:08:32;17.00;99.90
43338;DHT22;28933;52.492;13.434;2022-10-31T10:14:07;17.10;99.90
43338;DHT22;28933;52.492;13.434;2022-10-31T10:16:49;17.10;99.90
43338;DHT22;28933;52.492;13.434;2022-10-31T10:24:59;17.10;99.90
43338;DHT22;28933;52.492;13.434;2022-10-31T10:35:24;17.30;99.90
43338;DHT22;28933;52.492;13.434;2022-10-31T10:37:57;17.30;99.90
43338;DHT22;28933;52.492;13.434;2022-10-31T10:40:26;17.40;99.90
43338;DHT22;28933;52.492;13.434;2022-10-31T10:49:33;17.40;99.90
43338;DHT22;28933;52.492;13.434;2022-10-31T10:54:47;17.50;99.90
43338;DHT22;28933;52.492;13.434;2022-10-31T11:00:38;17.70;99.90
43338;DHT22;28933;52.492;13.434;2022-10-31T11:03:04;17.80;99.90
43338;DHT22;28933;52.492;13.434;2022-10-31T11:05:36;17.80;99.90
43338;DHT22;28933;52.492;13.434;2022-10-31T11:08:05;17.90;99.90
43338;DHT22;28933;52.492;13.434;2022-10-31T11:10:33;17.90;99.90
43338;DHT22;28933;52.492;13.434;2022-10-31T11:15:56;18.00;99.90
43338;DHT22;28933;52.492;13.434;2022-10-31T11:18:25;18.00;99.90
43338;DHT22;28933;52.492;13.434;2022-10-31T11:20:53;18.00;99.90
43338;DHT22;28933;52.492;13.434;2022-10-31T11:23:20;18.10;99.90
43338;DHT22;28933;52.492;13.434;2022-10-31T11:28:21;18.20;99.90
43338;DHT22;28933;52.492;13.434;2022-10-31T11:30:55;18.20;99.90
43338;DHT22;28933;52.492;13.434;2022-10-31T11:33:32;18.30;99.90
43338;DHT22;28933;52.492;13.434;2022-10-31T11:36:01;18.30;99.90
43338;DHT22;28933;52.492;13.434;2022-10-31T11:38:34;18.30;99.90
43338;DHT22;28933;52.492;13.434;2022-10-31T11:41:11;18.40;99.90
43338;DHT22;28933;52.492;13.434;2022-10-31T11:43:38;18.40;99.90
43338;DHT22;28933;52.492;13.434;2022-10-31T11:46:20;18.50;99.90
43338;DHT22;28933;52.492;13.434;2022-10-31T11:48:50;18.50;99.90
43338;DHT22;28933;52.492;13.434;2022-10-31T11:51:30;18.60;99.90
43338;DHT22;28933;52.492;13.434;2022-10-31T11:53:58;18.60;99.90
43338;DHT22;28933;52.492;13.434;2022-10-31T11:56:26;18.70;99.90
43338;DHT22;28933;52.492;13.434;2022-10-31T11:59:01;18.70;99.90
43338;DHT22;28933;52.492;13.434;2022-10-31T12:01:29;18.80;99.90
43338;DHT22;28933;52.492;13.434;2022-10-31T12:04:09;18.80;99.90
43338;DHT22;28933;52.492;13.434;2022-10-31T12:06:37;18.90;99.90
43338;DHT22;28933;52.492;13.434;2022-10-31T12:09:18;18.90;99.90
43338;DHT22;28933;52.492;13.434;2022-10-31T12:14:26;19.00;99.90
43338;DHT22;28933;52.492;13.434;2022-10-31T12:17:13;19.10;99.90
43338;DHT22;28933;52.492;13.434;2022-10-31T12:19:59;19.10;99.90
43338;DHT22;28933;52.492;13.434;2022-10-31T12:27:40;19.30;99.90
43338;DHT22;28933;52.492;13.434;2022-10-31T12:33:21;19.40;99.90
43338;DHT22;28933;52.492;13.434;2022-10-31T12:38:57;19.30;99.90
43338;DHT22;28933;52.492;13.434;2022-10-31T12:44:47;19.40;99.90
43338;DHT22;28933;52.492;13.434;2022-10-31T12:50:12;19.40;99.90
43338;DHT22;28933;52.492;13.434;2022-10-31T12:52:46;19.40;99.90
43338;DHT22;28933;52.492;13.434;2022-10-31T13:01:16;19.50;99.90
43338;DHT22;28933;52.492;13.434;2022-10-31T13:04:14;19.50;99.90
43338;DHT22;28933;52.492;13.434;2022-10-31T13:07:02;19.60;99.90
43338;DHT22;28933;52.492;13.434;2022-10-31T13:09:44;19.70;99.90
43338;DHT22;28933;52.492;13.434;2022-10-31T13:12:15;19.70;99.80
43338;DHT22;28933;52.492;13.434;2022-10-31T13:14:59;19.80;99.80
43338;DHT22;28933;52.492;13.434;2022-10-31T13:17:34;19.80;99.80
43338;DHT22;28933;52.492;13.434;2022-10-31T13:20:26;19.80;99.70
43338;DHT22;28933;52.492;13.434;2022-10-31T13:23:07;19.90;99.60
43338;DHT22;28933;52.492;13.434;2022-10-31T13:25:39;20.00;99.70
43338;DHT22;28933;52.492;13.434;2022-10-31T13:28:40;20.00;99.40
43338;DHT22;28933;52.492;13.434;2022-10-31T13:31:10;20.00;99.50
43338;DHT22;28933;52.492;13.434;2022-10-31T13:33:59;20.00;99.30
43338;DHT22;28933;52.492;13.434;2022-10-31T13:36:39;20.00;99.20
43338;DHT22;28933;52.492;13.434;2022-10-31T13:42:04;20.00;99.20
43338;DHT22;28933;52.492;13.434;2022-10-31T13:44:35;20.00;99.10
43338;DHT22;28933;52.492;13.434;2022-10-31T13:47:03;20.00;99.10
43338;DHT22;28933;52.492;13.434;2022-10-31T13:52:14;20.00;99.10
43338;DHT22;28933;52.492;13.434;2022-10-31T13:54:46;20.00;99.10
43338;DHT22;28933;52.492;13.434;2022-10-31T13:59:53;20.00;99.10
43338;DHT22;28933;52.492;13.434;2022-10-31T14:02:26;20.00;99.00
43338;DHT22;28933;52.492;13.434;2022-10-31T14:04:57;20.00;98.90
43338;DHT22;28933;52.492;13.434;2022-10-31T14:07:25;20.00;99.20
43338;DHT22;28933;52.492;13.434;2022-10-31T14:10:05;20.00;99.00
43338;DHT22;28933;52.492;13.434;2022-10-31T14:12:43;20.00;99.00
43338;DHT22;28933;52.492;13.434;2022-10-31T14:20:24;19.90;99.00
43338;DHT22;28933;52.492;13.434;2022-10-31T14:22:50;19.90;99.00
43338;DHT22;28933;52.492;13.434;2022-10-31T14:25:35;19.80;99.00
43338;DHT22;28933;52.492;13.434;2022-10-31T14:28:31;19.80;99.10
43338;DHT22;28933;52.492;13.434;2022-10-31T14:30:58;19.70;99.10
43338;DHT22;28933;52.492;13.434;2022-10-31T14:33:27;19.70;99.10
43338;DHT22;28933;52.492;13.434;2022-10-31T14:35:58;19.60;99.10
43338;DHT22;28933;52.492;13.434;2022-10-31T14:38:42;19.60;99.10
43338;DHT22;28933;52.492;13.434;2022-10-31T14:41:36;19.60;99.20
43338;DHT22;28933;52.492;13.434;2022-10-31T14:44:17;19.60;99.20
43338;DHT22;28933;52.492;13.434;2022-10-31T14:47:02;19.60;99.20
43338;DHT22;28933;52.492;13.434;2022-10-31T14:50:04;19.50;99.20
43338;DHT22;28933;52.492;13.434;2022-10-31T14:52:36;19.50;99.40
43338;DHT22;28933;52.492;13.434;2022-10-31T14:55:06;19.40;99.60
43338;DHT22;28933;52.492;13.434;2022-10-31T14:57:34;19.30;99.80
43338;DHT22;28933;52.492;13.434;2022-10-31T15:00:05;19.20;99.90
43338;DHT22;28933;52.492;13.434;2022-10-31T15:02:41;19.10;99.90
43338;DHT22;28933;52.492;13.434;2022-10-31T15:05:10;19.00;99.90
43338;DHT22;28933;52.492;13.434;2022-10-31T15:07:47;19.00;99.90
43338;DHT22;28933;52.492;13.434;2022-10-31T15:10:25;18.90;99.90
43338;DHT22;28933;52.492;13.434;2022-10-31T15:12:51;18.80;99.90
43338;DHT22;28933;52.492;13.434;2022-10-31T15:15:26;18.80;99.90
43338;DHT22;28933;52.492;13.434;2022-10-31T15:17:58;18.80;99.90
43338;DHT22;28933;52.492;13.434;2022-10-31T15:20:36;18.60;99.90
43338;DHT22;28933;52.492;13.434;2022-10-31T15:23:03;18.60;99.90
43338;DHT22;28933;52.492;13.434;2022-10-31T15:25:33;18.50;99.90
43338;DHT22;28933;52.492;13.434;2022-10-31T15:27:59;18.40;99.90
43338;DHT22;28933;52.492;13.434;2022-10-31T15:30:27;18.40;99.90
43338;DHT22;28933;52.492;13.434;2022-10-31T15:32:54;18.40;99.90
43338;DHT22;28933;52.492;13.434;2022-10-31T15:35:31;18.30;99.90
43338;DHT22;28933;52.492;13.434;2022-10-31T15:37:58;18.30;99.90
43338;DHT22;28933;52.492;13.434;2022-10-31T15:40:25;18.30;99.90
43338;DHT22;28933;52.492;13.434;2022-10-31T15:43:02;18.10;99.90
43338;DHT22;28933;52.492;13.434;2022-10-31T15:45:29;18.10;99.90
43338;DHT22;28933;52.492;13.434;2022-10-31T15:47:57;18.10;99.90
43338;DHT22;28933;52.492;13.434;2022-10-31T15:50:34;18.00;99.90
43338;DHT22;28933;52.492;13.434;2022-10-31T15:53:01;18.00;99.90
43338;DHT22;28933;52.492;13.434;2022-10-31T15:55:30;17.90;99.90
43338;DHT22;28933;52.492;13.434;2022-10-31T15:58:03;17.90;99.90
43338;DHT22;28933;52.492;13.434;2022-10-31T16:00:35;17.80;99.90
43338;DHT22;28933;52.492;13.434;2022-10-31T16:06:03;17.80;99.90
43338;DHT22;28933;52.492;13.434;2022-10-31T16:11:22;17.70;99.90
43338;DHT22;28933;52.492;13.434;2022-10-31T16:16:18;17.60;99.90
43338;DHT22;28933;52.492;13.434;2022-10-31T16:18:46;17.60;99.90
43338;DHT22;28933;52.492;13.434;2022-10-31T16:21:12;17.60;99.90
43338;DHT22;28933;52.492;13.434;2022-10-31T16:23:44;17.50;99.90
43338;DHT22;28933;52.492;13.434;2022-10-31T16:26:16;17.50;99.90
43338;DHT22;28933;52.492;13.434;2022-10-31T16:28:51;17.50;99.90
43338;DHT22;28933;52.492;13.434;2022-10-31T16:31:29;17.40;99.90
43338;DHT22;28933;52.492;13.434;2022-10-31T16:34:03;17.40;99.90
43338;DHT22;28933;52.492;13.434;2022-10-31T16:36:32;17.40;99.90
43338;DHT22;28933;52.492;13.434;2022-10-31T16:38:58;17.40;99.90
43338;DHT22;28933;52.492;13.434;2022-10-31T16:41:24;17.40;99.90
43338;DHT22;28933;52.492;13.434;2022-10-31T16:43:50;17.40;99.90
43338;DHT22;28933;52.492;13.434;2022-10-31T16:46:24;17.30;99.90
43338;DHT22;28933;52.492;13.434;2022-10-31T16:48:50;17.30;99.90
43338;DHT22;28933;52.492;13.434;2022-10-31T16:51:16;17.30;99.90
43338;DHT22;28933;52.492;13.434;2022-10-31T16:53:42;17.20;99.90
43338;DHT22;28933;52.492;13.434;2022-10-31T16:56:15;17.20;99.90
43338;DHT22;28933;52.492;13.434;2022-10-31T16:58:41;17.20;99.90
43338;DHT22;28933;52.492;13.434;2022-10-31T17:01:07;17.20;99.90
43338;DHT22;28933;52.492;13.434;2022-10-31T17:03:33;17.10;99.90
43338;DHT22;28933;52.492;13.434;2022-10-31T17:05:59;17.10;99.90
43338;DHT22;28933;52.492;13.434;2022-10-31T17:08:24;17.10;99.90
43338;DHT22;28933;52.492;13.434;2022-10-31T17:10:53;17.00;99.90
43338;DHT22;28933;52.492;13.434;2022-10-31T17:13:25;17.00;99.90
43338;DHT22;28933;52.492;13.434;2022-10-31T17:15:54;16.90;99.90
43338;DHT22;28933;52.492;13.434;2022-10-31T17:18:20;16.90;99.90
43338;DHT22;28933;52.492;13.434;2022-10-31T17:20:46;16.90;99.90
43338;DHT22;28933;52.492;13.434;2022-10-31T17:23:14;16.90;99.90
43338;DHT22;28933;52.492;13.434;2022-10-31T17:25:41;16.80;99.90
43338;DHT22;28933;52.492;13.434;2022-10-31T17:28:10;16.80;99.90